Time;durP1;ratioP1;P1;durP2;ratioP2;P2;SDS_P1;SDS_P2;PMS_P1;PMS_P2;Temp;Humidity;BMP_temperature;BMP_pressure;BME280_temperature;BME280_humidity;BME280_pressure;Samples;Min_cycle;Max_cycle;Signal;HPM_P1;HPM_P2
2021/12/25 00:00:36;;;;;;;1.10;0.70;;;-0.30;98.70;;;;;;5109267;28;20192;-61
2021/12/25 00:03:03;;;;;;;2.57;0.90;;;-0.40;98.70;;;;;;5095948;28;20192;-61
2021/12/25 00:05:31;;;;;;;1.90;0.77;;;-0.30;98.60;;;;;;5099419;28;20207;-61
2021/12/25 00:07:59;;;;;;;1.37;0.80;;;-0.30;98.60;;;;;;5101068;28;20218;-61
2021/12/25 00:10:26;;;;;;;1.40;0.50;;;-0.40;98.60;;;;;;5108845;28;20226;-62
2021/12/25 00:12:54;;;;;;;0.70;0.67;;;-0.30;98.70;;;;;;5090966;28;20207;-61
2021/12/25 00:15:22;;;;;;;0.97;0.70;;;-0.30;98.70;;;;;;5088641;28;20203;-61
2021/12/25 00:17:49;;;;;;;1.73;0.83;;;-0.40;98.30;;;;;;5109659;28;20644;-61
2021/12/25 00:20:17;;;;;;;1.00;0.67;;;-0.40;98.20;;;;;;5097494;28;20574;-63
2021/12/25 00:22:44;;;;;;;1.47;0.60;;;-0.40;98.30;;;;;;5100182;28;20235;-61
2021/12/25 00:25:14;;;;;;;2.30;0.90;;;-0.40;98.70;;;;;;5078268;28;20207;-61
2021/12/25 00:27:58;;;;;;;1.67;1.07;;;-0.40;98.30;;;;;;5073305;28;20223;-62
2021/12/25 00:30:34;;;;;;;2.53;1.07;;;-0.40;98.30;;;;;;5098151;28;20676;-60
2021/12/25 00:33:05;;;;;;;5.00;1.33;;;-0.50;97.90;;;;;;5083962;28;20195;-61
2021/12/25 00:35:33;;;;;;;3.83;1.10;;;-0.60;97.80;;;;;;5084022;28;20666;-61
2021/12/25 00:38:01;;;;;;;2.50;1.13;;;-0.60;97.80;;;;;;5083948;28;20626;-62
2021/12/25 00:40:29;;;;;;;2.03;1.20;;;-0.60;97.90;;;;;;5086357;28;20212;-62
2021/12/25 00:42:56;;;;;;;2.13;1.13;;;-0.70;97.80;;;;;;5101210;28;20233;-60
2021/12/25 00:45:23;;;;;;;0.70;0.70;;;-0.70;97.80;;;;;;5099340;28;20200;-61
2021/12/25 00:47:51;;;;;;;2.67;0.70;;;-0.70;97.90;;;;;;5094241;28;20214;-61
2021/12/25 00:50:18;;;;;;;0.77;0.77;;;-0.70;98.10;;;;;;5085148;28;20218;-63
2021/12/25 00:52:45;;;;;;;3.87;1.20;;;-0.70;98.20;;;;;;5084275;28;20204;-63
2021/12/25 00:55:13;;;;;;;1.77;1.13;;;-0.70;98.00;;;;;;5075644;28;20204;-62
2021/12/25 00:57:41;;;;;;;2.80;1.40;;;-0.70;97.90;;;;;;5104888;28;20206;-61
2021/12/25 01:00:12;;;;;;;2.87;1.20;;;-0.70;97.70;;;;;;5104288;28;20721;-61
2021/12/25 01:02:40;;;;;;;4.07;1.57;;;-0.70;97.80;;;;;;5090942;28;20203;-63
2021/12/25 01:05:10;;;;;;;3.17;1.60;;;-0.80;97.60;;;;;;5109801;28;20623;-62
2021/12/25 01:07:38;;;;;;;3.47;1.70;;;-0.80;97.60;;;;;;5108164;28;20678;-63
2021/12/25 01:10:09;;;;;;;4.00;1.73;;;-0.80;97.60;;;;;;5090496;28;20203;-61
2021/12/25 01:12:51;;;;;;;4.90;1.87;;;-0.90;97.50;;;;;;5077044;28;20615;-62
2021/12/25 01:15:26;;;;;;;5.10;1.97;;;-0.90;97.70;;;;;;5078268;28;20617;-62
2021/12/25 01:18:52;;;;;;;3.90;1.50;;;-1.00;97.80;;;;;;5097193;28;20268;-62
2021/12/25 01:29:51;;;;;;;2.73;1.40;;;-1.10;97.80;;;;;;5090179;28;20686;-61
2021/12/25 01:38:50;;;;;;;1.77;1.20;;;-1.10;97.80;;;;;;5061520;28;20693;-62
2021/12/25 01:50:09;;;;;;;8.23;1.83;;;-1.10;97.80;;;;;;5083491;28;20658;-62
2021/12/25 01:52:36;;;;;;;4.37;1.40;;;-1.20;97.70;;;;;;5105256;28;20214;-61
2021/12/25 01:55:09;;;;;;;3.20;1.30;;;-1.20;97.70;;;;;;5105584;28;20222;-61
2021/12/25 01:57:37;;;;;;;3.50;1.40;;;-1.20;97.90;;;;;;5091585;28;20310;-62
2021/12/25 02:00:07;;;;;;;2.60;1.20;;;-1.20;97.80;;;;;;5084327;28;20764;-62
2021/12/25 02:02:45;;;;;;;3.03;1.23;;;-1.20;97.90;;;;;;5107936;28;20185;-62
2021/12/25 02:05:13;;;;;;;1.57;1.00;;;-1.20;98.00;;;;;;5104932;28;20581;-62
2021/12/25 02:07:40;;;;;;;1.83;0.93;;;-1.20;98.10;;;;;;5112836;28;20199;-60
2021/12/25 02:10:09;;;;;;;1.77;1.13;;;-1.20;98.20;;;;;;5084072;28;20220;-62
2021/12/25 02:12:36;;;;;;;1.77;1.00;;;-1.20;98.10;;;;;;5090988;28;20624;-62
2021/12/25 02:15:09;;;;;;;3.53;1.20;;;-1.20;98.10;;;;;;5091885;28;20204;-62
2021/12/25 02:17:53;;;;;;;1.00;0.90;;;-1.20;98.10;;;;;;5098503;28;20676;-63
2021/12/25 02:20:44;;;;;;;3.23;0.90;;;-1.20;98.10;;;;;;5082002;28;20206;-61
2021/12/25 02:23:15;;;;;;;1.17;0.73;;;-1.10;98.20;;;;;;5112212;28;20230;-62
2021/12/25 02:25:42;;;;;;;0.63;0.63;;;-1.10;98.20;;;;;;5101217;28;20204;-62
2021/12/25 02:28:12;;;;;;;1.57;0.90;;;-1.10;98.20;;;;;;5094227;28;20213;-60
2021/12/25 02:30:40;;;;;;;0.83;0.50;;;-1.10;98.00;;;;;;5098335;28;20215;-60
2021/12/25 02:33:08;;;;;;;1.30;0.70;;;-1.10;98.10;;;;;;5111621;28;20295;-62
2021/12/25 02:35:37;;;;;;;2.97;1.23;;;-1.10;97.90;;;;;;5110206;27;20319;-61
2021/12/25 02:38:04;;;;;;;1.67;0.80;;;-1.10;97.70;;;;;;5092325;28;20206;-63
2021/12/25 02:40:32;;;;;;;2.40;1.13;;;-1.10;97.70;;;;;;5086664;28;20744;-63
2021/12/25 02:42:59;;;;;;;1.63;0.80;;;-1.10;97.80;;;;;;5109893;28;20693;-64
2021/12/25 02:45:26;;;;;;;2.03;0.97;;;-1.20;97.90;;;;;;5106839;28;20659;-63
2021/12/25 02:48:07;;;;;;;2.33;1.10;;;-1.20;97.90;;;;;;5087572;28;20571;-62
2021/12/25 02:50:36;;;;;;;0.77;0.50;;;-1.10;98.00;;;;;;5097880;28;20203;-62
2021/12/25 02:53:07;;;;;;;0.87;0.73;;;-1.10;97.80;;;;;;5091233;28;20187;-63
2021/12/25 02:55:36;;;;;;;3.00;0.90;;;-1.10;97.70;;;;;;5108267;28;20215;-62
2021/12/25 02:58:04;;;;;;;2.97;1.00;;;-1.10;97.40;;;;;;5093437;28;20244;-62
2021/12/25 03:00:36;;;;;;;1.30;0.93;;;-1.20;97.30;;;;;;5083794;28;20639;-62
2021/12/25 03:03:05;;;;;;;0.80;0.60;;;-1.20;97.50;;;;;;5106928;28;20501;-62
2021/12/25 03:05:33;;;;;;;1.93;0.70;;;-1.20;97.60;;;;;;5087167;28;20208;-62
2021/12/25 03:08:02;;;;;;;2.80;1.00;;;-1.20;97.50;;;;;;5083592;28;20224;-62
2021/12/25 03:10:37;;;;;;;3.27;0.90;;;-2.30;97.00;;;;;;5086859;28;20211;-62
2021/12/25 03:13:18;;;;;;;2.00;0.87;;;-1.20;97.40;;;;;;5074492;28;20287;-62
2021/12/25 03:15:49;;;;;;;3.53;0.70;;;-1.10;97.50;;;;;;5107377;28;20206;-63
2021/12/25 03:18:20;;;;;;;3.60;0.97;;;-1.20;97.50;;;;;;5092613;28;20234;-61
2021/12/25 03:20:51;;;;;;;1.33;1.00;;;-1.20;97.50;;;;;;5091146;28;20199;-61
2021/12/25 03:23:21;;;;;;;2.40;1.10;;;-1.30;97.40;;;;;;5084633;28;20289;-62
2021/12/25 03:25:50;;;;;;;4.10;1.10;;;-1.20;97.30;;;;;;5104989;28;20279;-61
2021/12/25 03:28:21;;;;;;;1.00;0.73;;;-1.30;97.20;;;;;;5087658;28;20204;-62
2021/12/25 03:30:49;;;;;;;1.87;0.70;;;-1.30;97.30;;;;;;5093157;28;20231;-62
2021/12/25 03:33:18;;;;;;;1.23;0.60;;;-1.30;97.70;;;;;;5099225;28;20682;-62
2021/12/25 03:35:45;;;;;;;2.60;0.90;;;-1.30;97.40;;;;;;5083877;28;20200;-62
2021/12/25 03:38:16;;;;;;;1.17;0.60;;;-1.30;97.40;;;;;;5089449;28;20250;-62
2021/12/25 03:40:44;;;;;;;1.80;1.00;;;-1.20;97.50;;;;;;5079793;28;20581;-63
2021/12/25 03:43:12;;;;;;;1.60;0.70;;;-1.30;97.50;;;;;;5100893;28;20200;-62
2021/12/25 03:45:39;;;;;;;1.53;0.97;;;-1.30;97.50;;;;;;5082638;28;20214;-63
2021/12/25 03:48:12;;;;;;;2.10;1.13;;;-1.30;97.30;;;;;;5082596;28;20204;-61
2021/12/25 03:53:38;;;;;;;1.47;1.00;;;-1.30;97.30;;;;;;5083860;28;20191;-62
2021/12/25 03:59:09;;;;;;;2.43;1.00;;;-1.20;97.40;;;;;;5067861;28;20215;-62
2021/12/25 04:01:45;;;;;;;1.63;1.03;;;-1.30;97.00;;;;;;5066422;28;20197;-62
2021/12/25 04:04:21;;;;;;;5.27;1.00;;;-1.30;97.00;;;;;;5071211;28;20203;-61
2021/12/25 04:07:00;;;;;;;3.30;1.00;;;-1.40;97.00;;;;;;5091543;28;20207;-62
2021/12/25 04:09:29;;;;;;;4.13;1.03;;;-1.20;97.10;;;;;;5091092;28;20206;-61
2021/12/25 04:12:03;;;;;;;0.93;0.87;;;-1.30;97.10;;;;;;5090582;28;20196;-62
2021/12/25 04:14:33;;;;;;;2.77;0.80;;;-1.30;97.10;;;;;;5091959;28;20619;-62
2021/12/25 04:17:00;;;;;;;3.87;1.10;;;-1.20;97.10;;;;;;5108330;28;20245;-62
2021/12/25 04:19:28;;;;;;;1.83;0.83;;;-1.20;97.10;;;;;;5091668;28;20195;-61
2021/12/25 04:22:00;;;;;;;2.40;0.90;;;-1.20;97.00;;;;;;5080310;28;20224;-60
2021/12/25 04:24:30;;;;;;;3.03;0.90;;;-1.10;97.00;;;;;;5086357;28;20557;-61
2021/12/25 04:27:00;;;;;;;3.07;1.20;;;-1.10;97.10;;;;;;5091929;28;20524;-61
2021/12/25 04:29:40;;;;;;;2.87;0.90;;;-1.00;97.10;;;;;;5081858;28;20672;-60
2021/12/25 05:03:02;;;;;;;1.00;0.73;;;-1.10;96.30;;;;;;5107394;28;20196;-62
2021/12/25 05:05:57;;;;;;;4.23;0.60;;;-1.00;96.50;;;;;;5091237;28;20210;-62
2021/12/25 05:08:30;;;;;;;1.33;0.67;;;-0.80;96.60;;;;;;5085965;28;20200;-62
2021/12/25 05:10:58;;;;;;;2.00;0.73;;;-0.80;96.60;;;;;;5085787;28;20311;-62
2021/12/25 05:13:25;;;;;;;3.87;0.87;;;-0.80;96.20;;;;;;5087251;28;20666;-62
2021/12/25 05:15:54;;;;;;;2.67;0.93;;;-0.80;96.00;;;;;;5080783;28;20302;-63
2021/12/25 05:18:22;;;;;;;1.00;0.80;;;-0.80;95.80;;;;;;5083103;28;20311;-61
2021/12/25 05:20:49;;;;;;;2.30;1.00;;;-0.80;95.80;;;;;;5109647;28;20214;-62
2021/12/25 05:23:17;;;;;;;1.90;0.80;;;-0.80;95.90;;;;;;5090277;28;20232;-63
2021/12/25 05:25:44;;;;;;;1.90;0.90;;;-0.80;96.00;;;;;;5090884;28;20730;-63
2021/12/25 05:28:12;;;;;;;2.03;0.90;;;-0.80;96.00;;;;;;5092578;28;20513;-61
2021/12/25 05:30:41;;;;;;;2.00;1.00;;;-0.80;96.00;;;;;;5087143;28;20270;-61
2021/12/25 05:33:43;;;;;;;1.90;0.93;;;-0.80;95.90;;;;;;5061345;28;20228;-60
2021/12/25 05:36:26;;;;;;;2.13;0.70;;;-0.90;96.00;;;;;;5090619;28;20235;-61
2021/12/25 05:39:14;;;;;;;1.27;0.80;;;-0.80;96.20;;;;;;5081996;28;20319;-61
2021/12/25 05:41:44;;;;;;;1.90;0.97;;;-0.80;96.60;;;;;;5081176;28;20220;-61
2021/12/25 05:44:18;;;;;;;1.30;0.90;;;-0.80;96.50;;;;;;5084541;28;20220;-62
2021/12/25 05:47:09;;;;;;;2.10;0.80;;;-0.90;96.80;;;;;;5091856;28;20212;-61
2021/12/25 05:49:42;;;;;;;0.90;0.50;;;-0.90;97.30;;;;;;5090036;28;20204;-62
2021/12/25 05:52:23;;;;;;;1.77;0.70;;;-0.90;97.20;;;;;;5087191;28;20189;-61
2021/12/25 05:55:13;;;;;;;1.80;0.70;;;-0.90;97.10;;;;;;5088387;28;20200;-62
2021/12/25 05:58:09;;;;;;;1.70;0.57;;;-0.90;97.20;;;;;;5066268;28;20208;-62
2021/12/25 06:00:55;;;;;;;1.37;1.00;;;-0.90;97.10;;;;;;5089253;28;20241;-62
2021/12/25 06:03:22;;;;;;;0.67;0.67;;;-0.90;97.00;;;;;;5074717;28;20196;-62
2021/12/25 06:05:51;;;;;;;2.40;1.17;;;-0.90;96.90;;;;;;5085820;28;20212;-62
2021/12/25 06:08:18;;;;;;;1.60;0.80;;;-0.90;96.80;;;;;;5092049;28;20201;-61
2021/12/25 06:10:45;;;;;;;0.70;0.70;;;-0.90;96.50;;;;;;5096558;28;20209;-63
2021/12/25 06:13:17;;;;;;;1.87;0.90;;;-0.90;96.60;;;;;;5090381;28;20208;-61
2021/12/25 06:15:45;;;;;;;1.67;1.10;;;-0.90;96.70;;;;;;5088127;28;20208;-61
2021/12/25 06:18:33;;;;;;;2.63;1.20;;;-0.90;96.60;;;;;;5045762;28;20794;-62
2021/12/25 06:21:11;;;;;;;4.10;1.20;;;-0.90;96.50;;;;;;5087684;28;20227;-61
2021/12/25 06:23:52;;;;;;;2.20;1.10;;;-1.00;96.40;;;;;;5085411;28;20378;-60
2021/12/25 06:26:43;;;;;;;1.20;0.83;;;-1.00;96.50;;;;;;5077687;28;20205;-62
2021/12/25 06:29:36;;;;;;;2.73;0.97;;;-0.90;96.60;;;;;;5073786;28;20204;-61
2021/12/25 06:32:24;;;;;;;1.03;0.70;;;-1.00;96.50;;;;;;5043367;28;20663;-61
2021/12/25 06:35:14;;;;;;;4.23;1.00;;;-0.90;96.30;;;;;;5073892;28;20200;-61
2021/12/25 06:38:16;;;;;;;1.70;0.87;;;-1.00;96.20;;;;;;5078486;28;20247;-62
2021/12/25 06:41:04;;;;;;;1.03;0.70;;;-1.00;96.30;;;;;;5070576;28;20269;-62
2021/12/25 06:43:31;;;;;;;4.13;0.73;;;-0.90;96.30;;;;;;5087546;28;20201;-61
2021/12/25 06:45:59;;;;;;;0.80;0.63;;;-1.00;96.30;;;;;;5078491;28;20215;-62
2021/12/25 06:48:28;;;;;;;3.23;0.87;;;-1.00;96.30;;;;;;5076909;28;20291;-62
2021/12/25 06:51:13;;;;;;;2.17;1.00;;;-0.90;96.40;;;;;;5088262;28;20216;-61
2021/12/25 06:54:05;;;;;;;3.73;1.20;;;-0.90;96.20;;;;;;5076673;28;20255;-61
2021/12/25 06:56:59;;;;;;;2.60;0.87;;;-0.90;96.10;;;;;;5046243;28;20212;-62
2021/12/25 06:59:28;;;;;;;1.67;1.00;;;-0.90;96.20;;;;;;5090293;28;20707;-61
2021/12/25 07:01:57;;;;;;;5.03;1.00;;;-0.90;96.30;;;;;;5087627;28;20197;-62
2021/12/25 07:04:42;;;;;;;3.80;1.20;;;-0.90;96.20;;;;;;5073261;28;20612;-62
2021/12/25 07:07:28;;;;;;;3.80;1.20;;;-0.90;96.00;;;;;;5074691;28;20203;-61
2021/12/25 07:10:20;;;;;;;3.57;1.20;;;-0.90;96.20;;;;;;5081071;28;20540;-62
2021/12/25 07:13:15;;;;;;;4.67;0.90;;;-0.90;96.30;;;;;;5089028;28;20227;-62
2021/12/25 07:16:14;;;;;;;3.40;1.20;;;-0.80;96.40;;;;;;5053126;28;20710;-62
2021/12/25 07:19:15;;;;;;;2.07;1.00;;;-0.80;96.50;;;;;;5087980;28;20293;-62
2021/12/25 07:22:03;;;;;;;3.07;1.50;;;-0.80;97.00;;;;;;5089622;28;20215;-62
2021/12/25 07:24:53;;;;;;;2.37;1.27;;;-0.80;97.30;;;;;;5089203;28;20307;-62
2021/12/25 07:27:51;;;;;;;1.67;0.73;;;-0.80;97.40;;;;;;5066427;28;20224;-62
2021/12/25 07:30:18;;;;;;;1.50;1.10;;;-0.80;97.40;;;;;;5104796;28;20207;-62
2021/12/25 07:32:45;;;;;;;4.00;1.20;;;-0.70;97.40;;;;;;5092245;28;20195;-62
2021/12/25 07:35:12;;;;;;;3.90;1.20;;;-0.80;96.80;;;;;;5104863;28;20192;-61
2021/12/25 07:37:40;;;;;;;2.47;1.13;;;-0.80;96.50;;;;;;5106321;28;20203;-62
2021/12/25 07:40:10;;;;;;;1.10;0.73;;;-0.80;96.40;;;;;;5091811;28;20739;-62
2021/12/25 07:42:37;;;;;;;1.73;0.73;;;-0.80;96.60;;;;;;5102202;28;20226;-62
2021/12/25 07:45:25;;;;;;;1.33;0.80;;;-0.80;96.60;;;;;;5057863;28;20286;-61
2021/12/25 07:47:59;;;;;;;1.77;0.90;;;-0.70;96.70;;;;;;5103075;28;20196;-62
2021/12/25 07:50:27;;;;;;;1.10;1.03;;;-0.70;96.50;;;;;;5100796;28;20663;-62
2021/12/25 07:52:54;;;;;;;1.97;0.70;;;-0.70;96.40;;;;;;5088916;28;20276;-61
2021/12/25 07:55:21;;;;;;;1.93;0.97;;;-0.70;96.40;;;;;;5105297;28;20555;-61
2021/12/25 07:57:49;;;;;;;5.60;1.30;;;-0.70;96.40;;;;;;5097125;28;20203;-61
2021/12/25 08:00:17;;;;;;;4.93;1.37;;;-0.60;96.00;;;;;;5110249;27;20233;-62
2021/12/25 08:02:47;;;;;;;2.63;1.30;;;-0.60;95.60;;;;;;5097602;27;20283;-61
2021/12/25 08:05:14;;;;;;;1.10;0.90;;;-0.60;95.80;;;;;;5109528;28;20211;-62
2021/12/25 08:07:42;;;;;;;3.07;1.20;;;-0.60;95.90;;;;;;5107843;28;20585;-61
2021/12/25 08:10:13;;;;;;;1.97;1.30;;;-0.60;96.00;;;;;;5109074;28;20199;-62
2021/12/25 08:12:43;;;;;;;3.97;1.37;;;-0.50;96.00;;;;;;5105551;28;20199;-62
2021/12/25 08:15:12;;;;;;;5.33;1.80;;;-0.40;96.00;;;;;;5108273;28;20196;-62
2021/12/25 08:17:40;;;;;;;5.57;1.80;;;-0.40;95.70;;;;;;5089970;28;20195;-62
2021/12/25 08:20:28;;;;;;;4.47;1.60;;;-0.40;95.70;;;;;;5104468;28;20226;-62
2021/12/25 08:23:13;;;;;;;2.90;1.40;;;-0.40;95.80;;;;;;5099797;28;20222;-62
2021/12/25 08:25:59;;;;;;;3.77;1.27;;;0.60;96.40;;;;;;5098221;28;20641;-62
2021/12/25 08:28:38;;;;;;;2.83;1.40;;;-0.40;96.40;;;;;;5103314;28;20302;-62
2021/12/25 08:31:23;;;;;;;2.40;1.63;;;-0.40;96.60;;;;;;5097499;28;20214;-61
2021/12/25 08:34:20;;;;;;;2.73;1.37;;;-0.40;97.00;;;;;;5045010;28;20531;-61
2021/12/25 08:37:15;;;;;;;3.57;1.80;;;-0.40;97.40;;;;;;5100551;28;20673;-62
2021/12/25 08:39:42;;;;;;;4.07;1.67;;;-0.40;97.80;;;;;;5108590;28;20195;-61
2021/12/25 08:42:10;;;;;;;3.53;1.60;;;-0.40;98.10;;;;;;5096954;28;20195;-61
2021/12/25 08:44:42;;;;;;;3.00;1.70;;;-0.40;98.30;;;;;;5104381;28;20200;-62
2021/12/25 08:47:11;;;;;;;2.10;1.30;;;-0.40;98.50;;;;;;5101041;28;20288;-61
2021/12/25 08:49:41;;;;;;;6.83;2.10;;;-0.30;98.70;;;;;;5090744;28;20199;-61
2021/12/25 08:52:12;;;;;;;3.67;1.80;;;-0.30;99.00;;;;;;5099842;28;20234;-61
2021/12/25 08:54:41;;;;;;;3.23;1.57;;;-0.20;99.40;;;;;;5090682;28;20200;-61
2021/12/25 08:57:09;;;;;;;3.70;1.50;;;-0.20;99.60;;;;;;5108382;28;20197;-61
2021/12/25 08:59:38;;;;;;;4.33;1.70;;;-0.10;99.90;;;;;;5092800;28;20279;-61
2021/12/25 09:02:08;;;;;;;7.87;2.27;;;-0.10;99.90;;;;;;5089384;28;20195;-62
2021/12/25 09:04:37;;;;;;;4.70;1.97;;;-0.10;99.90;;;;;;5093097;28;20199;-62
2021/12/25 09:07:06;;;;;;;3.60;1.73;;;-0.10;99.90;;;;;;5084165;28;20207;-61
2021/12/25 09:09:33;;;;;;;3.03;1.37;;;-0.10;99.90;;;;;;5109951;28;20282;-61
2021/12/25 09:12:02;;;;;;;3.97;2.13;;;0.00;99.90;;;;;;5107687;28;20301;-62
2021/12/25 09:14:29;;;;;;;7.43;1.70;;;0.00;99.90;;;;;;5089745;28;20675;-61
2021/12/25 09:16:57;;;;;;;3.30;1.57;;;0.00;99.90;;;;;;5095759;28;20200;-62
2021/12/25 09:19:24;;;;;;;10.47;2.20;;;0.00;99.90;;;;;;5102167;28;20335;-62
2021/12/25 09:21:51;;;;;;;6.57;1.97;;;0.00;99.90;;;;;;5100787;28;20226;-61
2021/12/25 09:24:19;;;;;;;4.77;2.00;;;0.00;99.90;;;;;;5099901;28;20199;-61
2021/12/25 09:26:47;;;;;;;5.27;1.90;;;0.00;99.90;;;;;;5101438;28;20554;-62
2021/12/25 09:29:15;;;;;;;5.20;2.10;;;0.00;99.90;;;;;;5089138;28;20196;-62
2021/12/25 09:31:42;;;;;;;4.93;2.00;;;-0.10;99.90;;;;;;5096359;28;20201;-63
2021/12/25 09:34:09;;;;;;;2.27;1.70;;;0.00;99.90;;;;;;5080294;28;20602;-61
2021/12/25 09:36:37;;;;;;;6.87;1.90;;;0.00;99.90;;;;;;5080519;28;20200;-61
2021/12/25 09:39:06;;;;;;;4.67;1.90;;;0.10;99.90;;;;;;5108727;28;20195;-61
2021/12/25 09:41:34;;;;;;;4.03;2.00;;;0.10;99.90;;;;;;5098225;28;20266;-62
2021/12/25 09:44:01;;;;;;;4.37;2.53;;;0.20;99.90;;;;;;5109222;28;20216;-62
2021/12/25 09:46:30;;;;;;;4.30;2.33;;;0.30;99.90;;;;;;5102284;28;20685;-62
2021/12/25 09:48:57;;;;;;;6.43;2.63;;;0.30;99.90;;;;;;5104715;28;20188;-62
2021/12/25 09:51:24;;;;;;;5.93;2.70;;;0.40;99.90;;;;;;5089412;28;20212;-62
2021/12/25 09:54:00;;;;;;;4.20;2.47;;;0.40;99.90;;;;;;5106497;28;20287;-61
2021/12/25 09:56:27;;;;;;;8.97;3.17;;;0.40;99.90;;;;;;5110210;28;20634;-62
2021/12/25 09:58:55;;;;;;;5.87;2.63;;;0.50;99.90;;;;;;5090924;28;20528;-61
2021/12/25 10:01:37;;;;;;;5.80;2.83;;;0.50;99.90;;;;;;5095783;28;20241;-62
2021/12/25 10:04:05;;;;;;;9.33;3.63;;;0.50;99.90;;;;;;5104967;28;20659;-62
2021/12/25 10:06:34;;;;;;;9.57;3.30;;;0.50;99.90;;;;;;5109141;28;20707;-62
2021/12/25 10:09:13;;;;;;;10.80;3.53;;;0.50;99.90;;;;;;5108707;28;20202;-63
2021/12/25 10:11:59;;;;;;;12.03;3.97;;;0.70;99.90;;;;;;5108419;28;20678;-62
2021/12/25 10:14:26;;;;;;;8.70;4.00;;;0.20;99.90;;;;;;5098410;28;20659;-61
2021/12/25 10:16:55;;;;;;;8.60;3.53;;;0.30;99.90;;;;;;5097317;28;20612;-63
2021/12/25 10:19:27;;;;;;;11.70;3.83;;;0.30;99.90;;;;;;5098225;28;20206;-62
2021/12/25 10:22:06;;;;;;;6.87;3.20;;;0.30;99.90;;;;;;5090751;28;20242;-61
2021/12/25 10:24:41;;;;;;;10.03;3.87;;;0.40;99.90;;;;;;5108666;28;20254;-62
2021/12/25 10:27:14;;;;;;;9.27;3.37;;;0.30;99.90;;;;;;5086275;28;20581;-62
2021/12/25 10:29:41;;;;;;;5.67;3.00;;;0.30;99.90;;;;;;5101215;28;20265;-62
2021/12/25 10:32:19;;;;;;;13.07;3.80;;;0.30;99.90;;;;;;5098534;28;20209;-62
2021/12/25 10:34:47;;;;;;;7.57;3.33;;;0.40;99.90;;;;;;5093844;28;20736;-63
2021/12/25 10:37:16;;;;;;;9.43;3.40;;;0.40;99.90;;;;;;5087475;28;20536;-63
2021/12/25 10:39:44;;;;;;;7.27;2.97;;;0.50;99.90;;;;;;5109104;28;20202;-62
2021/12/25 10:42:18;;;;;;;7.33;2.90;;;0.70;99.90;;;;;;5072664;28;20386;-62
2021/12/25 10:44:46;;;;;;;7.40;3.37;;;0.80;99.90;;;;;;5097203;28;20289;-62
2021/12/25 10:47:17;;;;;;;7.90;3.00;;;0.90;99.90;;;;;;5085759;28;20579;-61
2021/12/25 10:49:47;;;;;;;8.47;3.50;;;1.00;99.90;;;;;;5096448;28;20271;-61
2021/12/25 10:52:21;;;;;;;10.47;4.00;;;1.00;99.90;;;;;;5086821;28;20311;-62
2021/12/25 10:54:50;;;;;;;13.23;4.10;;;1.00;99.90;;;;;;5095518;28;20196;-62
2021/12/25 10:57:36;;;;;;;7.83;3.00;;;0.90;99.90;;;;;;5095499;28;20196;-62
2021/12/25 11:00:07;;;;;;;8.47;3.27;;;0.90;99.90;;;;;;5101214;28;20180;-62
2021/12/25 11:02:37;;;;;;;8.23;3.50;;;1.00;99.90;;;;;;5104378;28;20267;-63
2021/12/25 11:05:18;;;;;;;13.50;3.30;;;1.10;99.90;;;;;;5087785;28;20265;-62
2021/12/25 11:07:46;;;;;;;6.83;3.07;;;1.10;99.90;;;;;;5097753;28;20393;-62
2021/12/25 11:10:15;;;;;;;6.33;2.90;;;1.20;99.90;;;;;;5104489;28;20680;-61
2021/12/25 11:12:43;;;;;;;7.10;3.23;;;1.20;99.90;;;;;;5099986;28;20220;-62
2021/12/25 11:15:13;;;;;;;9.70;3.50;;;1.10;99.90;;;;;;5082915;28;20215;-61
2021/12/25 11:17:46;;;;;;;6.93;3.23;;;1.10;99.90;;;;;;5102798;28;20183;-63
2021/12/25 11:20:18;;;;;;;5.30;2.70;;;1.10;99.90;;;;;;5109119;28;20195;-62
2021/12/25 11:22:48;;;;;;;10.50;3.90;;;1.10;99.90;;;;;;5103577;28;20231;-63
2021/12/25 11:25:16;;;;;;;8.27;2.70;;;1.10;99.90;;;;;;5102842;28;20644;-63
2021/12/25 11:27:43;;;;;;;7.30;3.30;;;1.00;99.90;;;;;;5086407;28;20210;-62
2021/12/25 11:30:12;;;;;;;11.10;4.13;;;1.00;99.90;;;;;;5086276;28;20207;-63
2021/12/25 11:32:39;;;;;;;6.10;2.83;;;1.00;99.90;;;;;;5103857;28;20208;-63
2021/12/25 11:35:10;;;;;;;7.03;2.77;;;0.90;99.90;;;;;;5097859;28;20188;-62
2021/12/25 11:37:38;;;;;;;10.97;3.50;;;1.00;99.90;;;;;;5101282;28;20192;-62
2021/12/25 11:40:08;;;;;;;8.43;3.27;;;1.00;99.90;;;;;;5103116;28;20274;-60
2021/12/25 11:42:40;;;;;;;7.53;3.30;;;1.00;99.90;;;;;;5091277;28;20649;-62
2021/12/25 11:45:17;;;;;;;11.47;4.30;;;1.00;99.90;;;;;;5109751;28;20195;-62
2021/12/25 11:47:47;;;;;;;11.77;4.10;;;1.00;99.90;;;;;;5109246;28;20188;-62
2021/12/25 11:50:17;;;;;;;13.17;4.80;;;1.00;99.90;;;;;;5108310;28;20717;-63
2021/12/25 11:52:51;;;;;;;12.47;4.23;;;1.10;99.90;;;;;;5106995;28;20208;-62
2021/12/25 11:58:20;;;;;;;11.50;4.00;;;1.10;99.90;;;;;;5093368;28;20206;-63
2021/12/25 12:00:50;;;;;;;9.73;4.30;;;1.10;99.90;;;;;;5106255;27;20188;-62
2021/12/25 12:03:36;;;;;;;7.80;3.37;;;1.10;99.90;;;;;;5091328;28;20189;-62
2021/12/25 12:06:05;;;;;;;11.03;3.97;;;1.00;99.90;;;;;;5079943;28;20299;-61
2021/12/25 12:09:08;;;;;;;9.00;3.33;;;1.00;99.90;;;;;;5108576;28;20196;-62
2021/12/25 12:12:10;;;;;;;8.63;3.53;;;1.00;99.90;;;;;;5089348;28;20275;-62
2021/12/25 12:15:10;;;;;;;7.40;2.90;;;0.90;99.90;;;;;;5098894;28;20211;-61
2021/12/25 12:17:58;;;;;;;12.57;4.00;;;0.90;99.90;;;;;;5102617;28;20203;-62
2021/12/25 12:20:38;;;;;;;9.90;4.20;;;0.90;99.90;;;;;;5090367;28;20663;-62
2021/12/25 12:23:35;;;;;;;8.20;3.63;;;0.90;99.90;;;;;;5088527;28;20326;-62
2021/12/25 12:26:07;;;;;;;9.90;4.00;;;1.00;99.90;;;;;;5086295;28;20203;-62
2021/12/25 12:28:49;;;;;;;12.20;4.67;;;1.00;99.90;;;;;;5084110;28;20216;-62
2021/12/25 12:31:35;;;;;;;11.47;4.37;;;1.00;99.90;;;;;;5078823;28;20284;-60
2021/12/25 12:34:02;;;;;;;6.50;3.73;;;1.00;99.90;;;;;;5072983;28;20339;-63
2021/12/25 12:36:29;;;;;;;9.83;4.60;;;1.00;99.90;;;;;;5084150;28;20738;-61
2021/12/25 12:39:19;;;;;;;9.63;3.90;;;1.10;99.90;;;;;;5079892;28;20193;-61
2021/12/25 12:41:55;;;;;;;10.53;3.43;;;1.00;99.90;;;;;;5071229;28;20227;-63
2021/12/25 12:44:29;;;;;;;8.20;3.77;;;1.10;99.90;;;;;;5087569;28;20196;-61
2021/12/25 12:47:14;;;;;;;12.43;4.37;;;1.10;99.90;;;;;;5079831;28;20199;-62
2021/12/25 12:50:00;;;;;;;11.53;3.73;;;1.00;99.90;;;;;;5083734;28;20762;-62
2021/12/25 12:52:31;;;;;;;10.60;4.07;;;1.00;99.90;;;;;;5079296;28;20204;-62
2021/12/25 12:55:04;;;;;;;10.03;4.00;;;1.00;99.90;;;;;;5081316;28;20189;-63
2021/12/25 12:57:35;;;;;;;9.93;4.10;;;1.00;99.90;;;;;;5075948;28;20294;-62
2021/12/25 13:00:09;;;;;;;11.57;4.03;;;1.00;99.90;;;;;;5076429;28;20189;-62
2021/12/25 13:02:40;;;;;;;11.27;4.33;;;1.00;99.90;;;;;;5082709;28;20485;-62
2021/12/25 13:05:08;;;;;;;8.93;3.93;;;1.00;99.90;;;;;;5088129;28;20208;-61
2021/12/25 13:07:37;;;;;;;14.70;4.23;;;1.00;99.90;;;;;;5087506;28;20724;-62
2021/12/25 13:10:16;;;;;;;9.03;3.60;;;1.00;99.90;;;;;;5083410;28;20275;-62
2021/12/25 13:12:46;;;;;;;8.33;3.70;;;1.90;99.90;;;;;;5081910;28;20205;-62
2021/12/25 13:15:17;;;;;;;11.13;3.90;;;1.00;99.90;;;;;;5086097;28;20706;-62
2021/12/25 13:17:53;;;;;;;6.07;3.27;;;1.00;99.90;;;;;;5080109;28;20300;-61
2021/12/25 13:20:33;;;;;;;11.03;3.80;;;1.00;99.90;;;;;;5086292;28;20208;-62
2021/12/25 13:23:03;;;;;;;11.77;4.83;;;1.00;99.90;;;;;;5094912;28;20312;-61
2021/12/25 13:25:31;;;;;;;9.07;4.07;;;1.00;99.90;;;;;;5105030;28;20295;-60
2021/12/25 13:28:04;;;;;;;14.33;5.33;;;1.00;99.90;;;;;;5114126;28;20195;-62
2021/12/25 13:30:32;;;;;;;11.57;5.00;;;1.00;99.90;;;;;;5107490;28;20567;-62
2021/12/25 13:33:10;;;;;;;16.67;5.43;;;0.90;99.90;;;;;;5090063;28;20242;-61
2021/12/25 13:35:38;;;;;;;15.77;5.87;;;1.00;99.90;;;;;;5106888;28;20202;-62
2021/12/25 13:38:05;;;;;;;16.37;6.10;;;0.90;99.90;;;;;;5103585;28;20244;-61
2021/12/25 13:40:36;;;;;;;11.07;4.80;;;0.80;99.90;;;;;;5101533;27;20252;-63
2021/12/25 13:43:09;;;;;;;10.00;4.30;;;0.80;99.90;;;;;;5101826;28;20275;-61
2021/12/25 13:45:37;;;;;;;13.10;4.77;;;0.80;99.90;;;;;;5105489;28;20226;-62
2021/12/25 13:48:07;;;;;;;9.97;4.43;;;0.80;99.90;;;;;;5088235;28;20204;-63
2021/12/25 13:50:36;;;;;;;12.03;4.70;;;0.30;99.90;;;;;;5102549;28;20203;-62
2021/12/25 13:53:14;;;;;;;9.97;4.03;;;0.70;99.90;;;;;;5100251;28;20216;-63
2021/12/25 13:55:43;;;;;;;12.40;4.67;;;0.70;99.90;;;;;;5102098;28;20199;-62
2021/12/25 13:58:13;;;;;;;10.67;4.83;;;0.70;99.90;;;;;;5094024;28;20647;-60
2021/12/25 14:00:43;;;;;;;13.53;4.70;;;0.70;99.90;;;;;;5105294;28;20199;-61
2021/12/25 14:03:12;;;;;;;15.60;5.20;;;0.70;99.90;;;;;;5100619;28;20689;-62
2021/12/25 14:05:43;;;;;;;14.57;5.77;;;0.70;99.90;;;;;;5104008;28;20687;-62
2021/12/25 14:08:12;;;;;;;11.20;5.00;;;0.60;99.90;;;;;;5094558;28;20215;-61
2021/12/25 14:10:41;;;;;;;14.97;5.30;;;0.60;99.90;;;;;;5109866;27;20654;-62
2021/12/25 14:13:16;;;;;;;16.47;5.57;;;0.60;99.90;;;;;;5110937;28;20317;-63
2021/12/25 14:15:47;;;;;;;15.10;4.70;;;0.60;99.90;;;;;;5109214;28;20197;-62
2021/12/25 14:18:15;;;;;;;11.90;4.53;;;0.50;99.90;;;;;;5110531;28;20245;-62
2021/12/25 14:20:43;;;;;;;13.00;4.90;;;0.50;99.90;;;;;;5109195;28;20187;-62
2021/12/25 14:23:12;;;;;;;16.10;5.33;;;0.50;99.90;;;;;;5093926;28;20238;-62